Time;durP1;ratioP1;P1;durP2;ratioP2;P2;SDS_P1;SDS_P2;PMS_P1;PMS_P2;Temp;Humidity;BMP_temperature;BMP_pressure;BME280_temperature;BME280_humidity;BME280_pressure;Samples;Min_cycle;Max_cycle;Signal;HPM_P1;HPM_P2
2021/12/10 00:00:14;;;;;;;0.43;0.25;;;0.50;1.40;;;1.04;100.00;94217.79;618824;226;31805;-75
2021/12/10 00:02:56;;;;;;;0.68;0.68;;;0.40;1.40;;;1.11;100.00;94209.58;647251;212;31547;-77
2021/12/10 00:05:38;;;;;;;0.60;0.60;;;0.40;1.40;;;1.03;100.00;94207.28;638948;216;31630;-75
2021/12/10 00:08:23;;;;;;;0.60;0.60;;;0.40;1.40;;;0.99;100.00;94210.13;647295;216;31834;-75
2021/12/10 00:11:04;;;;;;;0.40;0.40;;;0.40;1.40;;;0.99;100.00;94196.69;646729;212;31721;-75
2021/12/10 00:13:47;;;;;;;0.50;0.50;;;0.50;1.40;;;0.98;100.00;94193.86;647373;216;31498;-75
2021/12/10 00:16:28;;;;;;;0.45;0.40;;;0.40;1.40;;;0.99;100.00;94187.03;646916;212;32037;-75
2021/12/10 00:19:21;;;;;;;1.40;0.50;;;0.40;1.40;;;1.05;100.00;94180.27;646523;216;32868;-75
2021/12/10 00:21:51;;;;;;;0.80;0.60;;;0.30;1.40;;;0.92;100.00;94177.86;646694;216;32448;-75
2021/12/10 00:24:36;;;;;;;0.40;0.20;;;0.30;1.40;;;0.88;100.00;94176.23;646450;212;32111;-75
2021/12/10 00:27:27;;;;;;;0.40;0.30;;;0.40;1.40;;;0.94;100.00;94169.61;647703;216;31446;-75
2021/12/10 00:30:06;;;;;;;0.50;0.50;;;0.50;1.40;;;0.96;100.00;94167.20;646647;216;31511;-75
2021/12/10 00:32:43;;;;;;;1.70;1.20;;;0.50;1.40;;;1.01;100.00;94159.42;647674;216;31504;-75
2021/12/10 00:35:51;;;;;;;0.50;0.40;;;0.40;1.40;;;1.01;100.00;94148.91;618002;226;31881;-75
2021/12/10 00:38:33;;;;;;;1.20;0.50;;;0.40;1.40;;;0.99;100.00;94145.41;618620;226;31947;-76
2021/12/10 00:41:14;;;;;;;0.80;0.40;;;0.30;1.40;;;0.93;100.00;94138.67;647076;216;32242;-76
2021/12/10 00:43:56;;;;;;;0.40;0.40;;;0.30;1.40;;;0.90;100.00;94130.71;647511;216;32160;-76
2021/12/10 00:46:38;;;;;;;0.60;0.60;;;0.20;1.40;;;0.84;100.00;94128.94;646369;212;32195;-76
2021/12/10 00:49:19;;;;;;;0.80;0.73;;;0.20;1.40;;;0.79;100.00;94122.03;647672;212;32070;-75
2021/12/10 00:52:05;;;;;;;0.60;0.35;;;0.10;1.40;;;0.78;100.00;94119.21;646345;212;31578;-76
2021/12/10 00:54:48;;;;;;;1.83;0.75;;;0.10;1.40;;;0.84;100.00;94109.84;645622;216;31493;-75
2021/12/10 00:57:29;;;;;;;1.20;0.30;;;0.10;1.40;;;0.85;100.00;94109.14;646172;212;31530;-76
2021/12/10 01:00:12;;;;;;;1.25;0.73;;;0.00;1.40;;;0.81;100.00;94104.20;647794;212;31792;-76
2021/12/10 01:02:53;;;;;;;0.43;0.40;;;0.00;1.40;;;0.76;100.00;94103.75;646218;212;31528;-75
2021/12/10 01:05:35;;;;;;;0.60;0.30;;;0.10;1.40;;;0.77;100.00;94096.02;647725;212;31514;-76
2021/12/10 01:08:17;;;;;;;0.70;0.50;;;0.20;1.40;;;0.75;100.00;94095.70;647164;212;31527;-75
2021/12/10 01:11:03;;;;;;;0.57;0.57;;;0.20;1.40;;;0.77;100.00;94089.93;618239;226;42668;-75
2021/12/10 01:13:49;;;;;;;0.40;0.30;;;0.20;1.40;;;0.73;100.00;94088.66;647549;212;31497;-74
2021/12/10 01:25:08;;;;;;;0.40;0.30;;;0.10;1.40;;;0.62;100.00;94054.38;647182;212;31854;-75
2021/12/10 01:27:46;;;;;;;0.40;0.22;;;0.00;1.40;;;0.54;100.00;94049.39;646459;216;31518;-75
2021/12/10 01:30:31;;;;;;;0.40;0.30;;;0.00;1.40;;;0.51;100.00;94042.48;646937;212;31514;-76
2021/12/10 01:35:54;;;;;;;0.73;0.50;;;-0.10;1.40;;;0.44;100.00;94037.30;647503;216;31529;-76
2021/12/10 01:38:33;;;;;;;0.40;0.30;;;-0.20;1.40;;;0.37;100.00;94032.17;646206;216;42165;-75
2021/12/10 01:41:17;;;;;;;1.40;0.50;;;-0.30;1.40;;;0.35;100.00;94021.44;648363;212;42175;-75
2021/12/10 01:44:03;;;;;;;0.40;0.30;;;-0.30;1.40;;;0.19;100.00;94013.33;647358;216;31499;-75
2021/12/10 01:46:41;;;;;;;1.70;0.45;;;-0.50;1.40;;;0.03;100.00;94012.06;646871;216;31527;-75
2021/12/10 01:49:23;;;;;;;0.50;0.40;;;-0.60;1.40;;;-0.03;100.00;94010.04;647612;216;31565;-75
2021/12/10 01:52:05;;;;;;;0.40;0.40;;;-0.70;1.40;;;-0.15;100.00;93998.64;619808;226;32017;-75
2021/12/10 01:54:49;;;;;;;0.50;0.47;;;-0.90;1.40;;;-0.24;100.00;93997.70;647169;212;31461;-75
2021/12/10 02:00:08;;;;;;;0.40;0.30;;;-1.00;1.40;;;-0.40;100.00;93983.58;647455;216;31496;-75
2021/12/10 02:02:50;;;;;;;0.40;0.30;;;-1.00;1.40;;;-0.55;100.00;93974.70;620326;226;33768;-76
2021/12/10 02:05:35;;;;;;;1.60;0.60;;;-1.10;1.40;;;-0.62;100.00;93964.63;640001;212;42433;-75
2021/12/10 02:08:17;;;;;;;0.40;0.20;;;-1.20;1.40;;;-0.70;100.00;93957.05;646678;216;42775;-75
2021/12/10 02:10:59;;;;;;;0.40;0.30;;;-1.20;1.40;;;-0.76;100.00;93952.84;646659;216;42559;-74
2021/12/10 02:13:40;;;;;;;1.10;0.40;;;-1.20;1.40;;;-0.89;100.00;93949.27;647632;216;32083;-75
2021/12/10 02:16:25;;;;;;;1.00;0.50;;;-1.40;1.40;;;-1.05;100.00;93939.06;620182;222;42505;-75
2021/12/10 02:19:06;;;;;;;1.15;0.70;;;-1.50;1.40;;;-1.13;100.00;93933.25;619509;226;31961;-75
2021/12/10 02:21:48;;;;;;;0.40;0.40;;;-1.60;1.40;;;-1.16;100.00;93922.47;647690;212;42122;-75
2021/12/10 02:24:30;;;;;;;0.40;0.40;;;-1.60;1.40;;;-1.15;100.00;93919.01;618148;226;31872;-75
2021/12/10 02:27:15;;;;;;;0.40;0.30;;;-1.60;1.40;;;-1.19;100.00;93912.32;646547;212;32142;-74
2021/12/10 02:29:57;;;;;;;0.40;0.20;;;-1.70;1.40;;;-1.22;100.00;93906.84;647306;216;31476;-75
2021/12/10 02:32:42;;;;;;;0.45;0.43;;;-1.70;1.40;;;-1.23;100.00;93905.05;647384;212;31544;-74
2021/12/10 02:35:51;;;;;;;0.60;0.60;;;-1.80;1.40;;;-1.63;100.00;93894.48;647020;216;31495;-75
2021/12/10 02:38:32;;;;;;;0.40;0.30;;;-2.40;1.40;;;-1.91;100.00;93887.80;646623;216;32064;-75
2021/12/10 02:41:14;;;;;;;0.40;0.30;;;-2.70;1.40;;;-2.00;100.00;93884.50;646138;216;31906;-74
2021/12/10 02:43:56;;;;;;;0.47;0.32;;;-2.90;1.40;;;-2.04;100.00;93880.47;647948;216;31465;-75
2021/12/10 02:46:38;;;;;;;0.40;0.40;;;-2.90;1.40;;;-2.15;100.00;93883.35;620372;226;31795;-75
2021/12/10 02:49:19;;;;;;;0.40;0.30;;;-3.00;1.40;;;-2.06;100.00;93873.59;646415;212;31583;-75
2021/12/10 02:52:02;;;;;;;1.70;0.40;;;-3.00;1.40;;;-2.10;100.00;93866.84;647360;216;31496;-75
2021/12/10 02:54:44;;;;;;;0.50;0.30;;;-3.10;1.40;;;-2.22;100.00;93864.82;648009;216;31527;-73
2021/12/10 02:57:25;;;;;;;0.40;0.30;;;-3.10;1.40;;;-2.18;100.00;93860.16;645784;216;31721;-75
2021/12/10 03:00:11;;;;;;;0.40;0.40;;;-3.20;1.40;;;-2.36;100.00;93856.08;646188;216;31573;-75
2021/12/10 03:02:52;;;;;;;0.40;0.40;;;-3.30;1.40;;;-2.42;100.00;93851.32;647468;216;31458;-75
2021/12/10 03:05:34;;;;;;;0.40;0.30;;;-3.30;1.40;;;-2.35;100.00;93842.34;647081;212;31773;-76
2021/12/10 03:08:16;;;;;;;0.40;0.20;;;-3.10;1.40;;;-2.38;100.00;93837.03;646253;212;32205;-75
2021/12/10 03:10:57;;;;;;;2.20;0.40;;;-3.20;1.40;;;-2.57;100.00;93826.16;620081;222;32834;-75
2021/12/10 03:13:39;;;;;;;0.40;0.40;;;-3.30;1.40;;;-2.71;100.00;93825.05;646146;212;31639;-75
2021/12/10 03:16:21;;;;;;;0.50;0.30;;;-3.40;1.40;;;-2.76;100.00;93821.11;647292;216;31502;-75
2021/12/10 03:19:02;;;;;;;0.40;0.40;;;-3.60;1.40;;;-2.82;100.00;93814.55;647652;216;31524;-74
2021/12/10 03:21:45;;;;;;;0.40;0.40;;;-3.60;1.40;;;-2.83;100.00;93801.98;647498;212;31502;-75
2021/12/10 03:24:26;;;;;;;0.40;0.28;;;-3.60;1.40;;;-2.92;100.00;93791.14;647138;216;32135;-75
2021/12/10 03:27:07;;;;;;;0.40;0.37;;;-3.70;1.40;;;-2.91;100.00;93794.06;645144;216;31622;-75
2021/12/10 03:29:49;;;;;;;0.45;0.45;;;-3.70;1.40;;;-3.00;100.00;93794.86;646655;216;31874;-75
2021/12/10 03:32:34;;;;;;;0.40;0.40;;;-3.80;1.40;;;-3.05;100.00;93799.99;646532;212;31632;-75
2021/12/10 03:35:51;;;;;;;0.50;0.40;;;-3.90;1.40;;;-3.02;100.00;93795.49;647130;214;31502;-75
2021/12/10 03:41:07;;;;;;;0.40;0.30;;;-3.90;1.40;;;-3.16;100.00;93780.78;645919;212;31471;-75
2021/12/10 03:46:26;;;;;;;0.50;0.50;;;-3.70;1.40;;;-3.09;100.00;93772.73;646343;212;31508;-76
2021/12/10 03:49:08;;;;;;;0.50;0.40;;;-3.60;1.40;;;-3.10;100.00;93771.73;619706;226;31970;-75
2021/12/10 03:51:54;;;;;;;0.40;0.30;;;-3.70;1.40;;;-2.98;100.00;93765.87;647864;216;31505;-75
2021/12/10 03:54:36;;;;;;;2.40;0.60;;;-3.60;1.40;;;-2.84;100.00;93756.80;646416;212;31479;-75
2021/12/10 03:57:19;;;;;;;0.50;0.30;;;-3.60;1.40;;;-2.84;100.00;93753.52;646573;212;31728;-77
2021/12/10 04:00:04;;;;;;;0.40;0.30;;;-3.50;1.40;;;-2.78;100.00;93742.95;646424;216;31484;-76
2021/12/10 04:02:45;;;;;;;0.60;0.40;;;-3.50;1.40;;;-2.85;100.00;93740.58;648186;216;31513;-75
2021/12/10 04:05:27;;;;;;;0.40;0.40;;;-3.70;1.40;;;-2.94;100.00;93728.16;640285;212;42293;-76
2021/12/10 04:08:09;;;;;;;0.50;0.40;;;-3.70;1.40;;;-3.02;100.00;93728.50;646548;216;31899;-75
2021/12/10 04:10:51;;;;;;;0.40;0.30;;;-3.90;1.40;;;-3.08;100.00;93726.84;647249;216;31513;-75
2021/12/10 04:13:32;;;;;;;0.40;0.30;;;-3.80;1.40;;;-3.06;100.00;93719.05;647549;215;31549;-76
2021/12/10 04:16:14;;;;;;;0.40;0.37;;;-3.80;1.40;;;-3.14;100.00;93713.64;646974;212;31512;-76
2021/12/10 04:18:56;;;;;;;0.70;0.40;;;-4.00;1.40;;;-3.30;100.00;93712.31;647075;216;32052;-76
2021/12/10 04:21:41;;;;;;;0.40;0.30;;;-4.10;1.40;;;-3.47;100.00;93711.92;647177;216;31655;-75
2021/12/10 04:24:24;;;;;;;0.50;0.40;;;-4.30;1.40;;;-3.62;100.00;93709.94;646944;216;31690;-75
2021/12/10 04:27:04;;;;;;;0.40;0.30;;;-4.60;1.40;;;-3.77;100.00;93701.97;620826;226;31952;-75
2021/12/10 04:29:46;;;;;;;1.50;0.40;;;-4.70;1.40;;;-3.87;100.00;93704.05;646779;212;31532;-76
2021/12/10 04:32:27;;;;;;;0.50;0.50;;;-4.80;1.40;;;-3.88;100.00;93707.43;646782;214;31516;-76
2021/12/10 04:35:51;;;;;;;0.40;0.20;;;-4.60;1.40;;;-3.91;100.00;93710.41;646965;216;31477;-76
2021/12/10 04:38:33;;;;;;;0.40;0.30;;;-4.70;1.40;;;-3.81;100.00;93710.11;631283;222;31779;-76
2021/12/10 04:41:14;;;;;;;0.40;0.30;;;-4.60;1.40;;;-3.96;100.00;93709.59;618828;226;31835;-76
2021/12/10 04:43:56;;;;;;;0.40;0.40;;;-4.70;1.40;;;-4.20;100.00;93704.73;618721;226;31880;-75
2021/12/10 04:46:38;;;;;;;0.40;0.30;;;-4.80;1.40;;;-4.32;100.00;93700.14;647291;216;31489;-74
2021/12/10 04:49:19;;;;;;;0.40;0.30;;;-5.00;1.40;;;-4.40;100.00;93683.54;646287;216;31784;-76
2021/12/10 04:52:01;;;;;;;0.40;0.30;;;-5.00;1.40;;;-4.39;100.00;93672.65;646503;216;31684;-75
2021/12/10 04:54:43;;;;;;;0.70;0.50;;;-5.00;1.40;;;-4.38;100.00;93654.30;647037;216;31493;-75
2021/12/10 04:57:24;;;;;;;0.40;0.30;;;-4.90;1.40;;;-3.86;100.00;93644.23;646592;212;31507;-75
2021/12/10 05:00:07;;;;;;;0.40;0.30;;;-4.20;1.40;;;-3.76;100.00;93648.88;646061;216;31477;-75
2021/12/10 05:02:49;;;;;;;0.40;0.40;;;-4.10;1.40;;;-3.70;100.00;93658.45;647086;212;31494;-75
2021/12/10 05:05:33;;;;;;;0.50;0.50;;;-4.10;1.40;;;-3.74;100.00;93650.36;639273;216;31845;-75
2021/12/10 05:08:15;;;;;;;0.40;0.30;;;-4.20;1.40;;;-4.03;100.00;93654.53;647807;216;31486;-76
2021/12/10 05:11:00;;;;;;;0.40;0.30;;;-4.90;1.40;;;-4.54;100.00;93656.52;619028;226;32206;-76
2021/12/10 05:13:41;;;;;;;1.90;0.50;;;-5.30;1.40;;;-4.65;100.00;93639.50;619877;222;31835;-75
2021/12/10 05:16:26;;;;;;;0.50;0.40;;;-5.40;1.40;;;-4.77;100.00;93632.30;645082;212;31526;-75
2021/12/10 05:19:10;;;;;;;0.40;0.30;;;-5.50;1.40;;;-4.82;100.00;93628.98;647928;216;31789;-76
2021/12/10 05:21:59;;;;;;;0.40;0.30;;;-5.40;1.40;;;-4.87;100.00;93626.23;647961;216;31496;-76
2021/12/10 05:24:39;;;;;;;0.40;0.30;;;-5.40;1.40;;;-4.88;100.00;93621.84;647132;212;31494;-76
2021/12/10 05:29:58;;;;;;;0.40;0.30;;;-5.40;1.40;;;-4.88;100.00;93625.65;646525;212;31520;-75
2021/12/10 05:32:40;;;;;;;0.45;0.45;;;-5.40;1.40;;;-4.68;100.00;93624.22;646094;216;42118;-75
2021/12/10 05:35:59;;;;;;;0.40;0.40;;;-5.20;1.40;;;-4.59;100.00;93620.44;647908;212;31535;-74
2021/12/10 05:38:45;;;;;;;0.40;0.30;;;-5.10;1.40;;;-4.67;100.00;93623.05;648005;216;31523;-75
2021/12/10 05:41:27;;;;;;;0.40;0.30;;;-5.20;1.40;;;-4.65;100.00;93615.06;646438;216;31908;-75
2021/12/10 05:44:09;;;;;;;1.00;1.00;;;-5.20;1.40;;;-4.65;100.00;93617.62;646919;216;31552;-75
2021/12/10 05:46:50;;;;;;;0.40;0.30;;;-5.20;1.40;;;-4.58;100.00;93616.95;617507;226;42633;-76
2021/12/10 05:49:32;;;;;;;0.50;0.50;;;-5.20;1.40;;;-4.66;100.00;93610.38;647054;212;31590;-75
2021/12/10 05:52:15;;;;;;;0.45;0.45;;;-5.10;1.40;;;-4.74;100.00;93604.56;646055;216;42118;-76
2021/12/10 05:54:56;;;;;;;0.40;0.32;;;-5.30;1.40;;;-4.78;100.00;93598.78;646184;216;31532;-75
2021/12/10 05:57:37;;;;;;;0.40;0.30;;;-5.50;1.40;;;-4.85;100.00;93592.16;646824;216;31503;-75
2021/12/10 06:00:19;;;;;;;0.47;0.43;;;-5.50;1.40;;;-4.96;100.00;93576.52;647952;216;31467;-74
2021/12/10 06:03:01;;;;;;;0.50;0.50;;;-5.50;1.40;;;-5.00;100.00;93572.95;646045;216;31582;-75
2021/12/10 06:05:42;;;;;;;0.40;0.30;;;-5.60;1.40;;;-4.94;100.00;93568.07;637975;216;31673;-75
2021/12/10 06:08:24;;;;;;;0.40;0.30;;;-5.50;1.40;;;-4.91;100.00;93565.71;619953;226;31830;-76
2021/12/10 06:11:06;;;;;;;0.70;0.40;;;-5.40;1.40;;;-4.92;100.00;93562.38;646788;212;31493;-76
2021/12/10 06:13:47;;;;;;;0.40;0.40;;;-5.50;1.40;;;-4.91;100.00;93558.52;646719;216;42143;-76
2021/12/10 06:16:29;;;;;;;0.40;0.30;;;-5.40;1.40;;;-4.90;100.00;93555.57;646155;216;31469;-75
2021/12/10 06:19:11;;;;;;;2.10;0.50;;;-5.50;1.40;;;-4.85;100.00;93559.41;646453;216;31512;-76
2021/12/10 06:21:52;;;;;;;0.60;0.50;;;-5.30;1.40;;;-5.03;100.00;93546.65;647863;212;31560;-76
2021/12/10 06:24:34;;;;;;;0.40;0.30;;;-5.60;1.40;;;-5.15;100.00;93542.98;647196;212;31565;-75
2021/12/10 06:27:19;;;;;;;0.40;0.40;;;-5.90;1.40;;;-5.32;100.00;93534.92;647702;212;31680;-76
2021/12/10 06:30:02;;;;;;;0.55;0.47;;;-6.00;1.40;;;-5.32;100.00;93518.92;647532;216;31482;-76
2021/12/10 06:32:47;;;;;;;0.40;0.40;;;-6.00;1.40;;;-5.42;100.00;93508.80;646435;216;31651;-74
2021/12/10 06:35:53;;;;;;;1.08;0.68;;;-6.10;1.40;;;-5.52;100.00;93504.09;618361;226;33233;-74
2021/12/10 06:38:41;;;;;;;0.47;0.30;;;-6.10;1.40;;;-5.46;100.00;93504.61;647157;216;31476;-75
2021/12/10 06:41:23;;;;;;;0.40;0.30;;;-6.00;1.40;;;-5.47;100.00;93504.70;646940;216;42144;-76
2021/12/10 06:44:06;;;;;;;0.40;0.30;;;-6.10;1.40;;;-5.43;100.00;93497.70;647850;216;31690;-75
2021/12/10 06:46:49;;;;;;;0.60;0.60;;;-6.00;1.40;;;-5.43;100.00;93498.76;646172;216;32252;-74
2021/12/10 06:49:33;;;;;;;0.60;0.50;;;-6.10;1.40;;;-5.64;100.00;93498.27;641898;218;31483;-75
2021/12/10 06:52:14;;;;;;;0.60;0.60;;;-6.30;1.40;;;-5.60;100.00;93491.86;646230;216;31487;-76
2021/12/10 06:54:56;;;;;;;0.70;0.50;;;-6.30;1.40;;;-5.68;100.00;93490.48;647141;216;31544;-75
2021/12/10 06:57:38;;;;;;;0.50;0.50;;;-6.30;1.40;;;-5.58;100.00;93487.34;618843;222;31902;-74
2021/12/10 07:00:20;;;;;;;0.60;0.60;;;-6.10;1.40;;;-5.60;100.00;93481.73;647556;213;42144;-76
2021/12/10 07:03:02;;;;;;;1.30;0.40;;;-6.10;1.40;;;-5.52;100.00;93483.50;646332;212;31607;-75
2021/12/10 07:05:44;;;;;;;0.40;0.32;;;-6.00;1.40;;;-5.41;100.00;93471.48;638343;216;32092;-74
2021/12/10 07:08:25;;;;;;;0.40;0.30;;;-5.90;1.40;;;-5.27;100.00;93468.73;647236;216;31488;-75
2021/12/10 07:11:11;;;;;;;0.50;0.50;;;-5.80;1.40;;;-5.15;100.00;93468.87;647148;216;42122;-75
2021/12/10 07:13:52;;;;;;;0.50;0.50;;;-5.70;1.40;;;-5.13;100.00;93467.78;647023;216;42479;-75
2021/12/10 07:16:36;;;;;;;0.50;0.50;;;-5.70;1.40;;;-5.09;100.00;93476.09;647714;212;42716;-74
2021/12/10 07:19:18;;;;;;;0.60;0.60;;;-5.70;1.40;;;-5.06;100.00;93474.05;646223;216;42740;-75
2021/12/10 07:21:59;;;;;;;0.40;0.30;;;-5.70;1.40;;;-5.02;100.00;93469.52;646037;216;31519;-75
2021/12/10 07:24:41;;;;;;;0.60;0.50;;;-5.80;1.40;;;-5.10;100.00;93472.18;648877;216;31600;-74
2021/12/10 07:27:24;;;;;;;1.10;0.40;;;-5.70;1.40;;;-4.99;100.00;93464.44;646312;212;31533;-76
2021/12/10 07:30:10;;;;;;;1.40;0.50;;;-5.70;1.40;;;-4.92;100.00;93460.83;647531;214;31477;-75
2021/12/10 07:32:52;;;;;;;0.50;0.50;;;-5.60;1.40;;;-4.90;100.00;93458.61;647327;216;32001;-76
2021/12/10 07:35:51;;;;;;;0.80;0.50;;;-5.60;1.40;;;-4.79;100.00;93443.56;645703;216;31578;-75
2021/12/10 07:38:35;;;;;;;0.40;0.30;;;-5.40;1.40;;;-4.59;100.00;93441.70;631655;221;31512;-75
2021/12/10 07:41:17;;;;;;;0.40;0.30;;;-5.20;1.40;;;-4.33;100.00;93441.73;647174;216;42102;-74
2021/12/10 07:44:02;;;;;;;0.60;0.60;;;-4.90;1.40;;;-3.93;100.00;93438.27;645450;212;42432;-75
2021/12/10 07:46:43;;;;;;;0.40;0.40;;;-4.40;1.40;;;-3.66;100.00;93430.27;619284;226;32293;-75
2021/12/10 07:49:29;;;;;;;0.50;0.40;;;-4.10;1.40;;;-3.38;100.00;93425.53;619752;222;32010;-75
2021/12/10 07:52:16;;;;;;;0.40;0.40;;;-3.90;1.40;;;-3.20;100.00;93427.47;646954;216;31526;-75
2021/12/10 07:54:52;;;;;;;0.60;0.60;;;-3.70;1.40;;;-3.06;100.00;93426.83;646278;212;31954;-77
2021/12/10 07:57:33;;;;;;;0.60;0.60;;;-3.50;1.40;;;-2.80;100.00;93424.73;647689;216;31479;-76
2021/12/10 08:00:22;;;;;;;0.50;0.50;;;-3.50;1.40;;;-2.64;100.00;93423.78;646744;216;31576;-75
2021/12/10 08:03:03;;;;;;;1.30;0.80;;;-3.40;1.40;;;-2.65;100.00;93419.50;646013;216;31812;-76
2021/12/10 08:05:45;;;;;;;0.40;0.40;;;-3.30;1.40;;;-2.55;100.00;93415.92;616254;226;32194;-77
2021/12/10 08:08:27;;;;;;;2.00;1.30;;;-3.20;1.40;;;-2.42;100.00;93413.36;646119;216;31568;-74
2021/12/10 08:11:12;;;;;;;0.80;0.40;;;-3.10;1.40;;;-2.23;100.00;93411.35;647775;212;31870;-75
2021/12/10 08:13:53;;;;;;;0.50;0.50;;;-3.00;1.40;;;-2.17;100.00;93409.21;645990;216;32110;-76
2021/12/10 08:16:36;;;;;;;2.80;0.60;;;-2.90;1.40;;;-1.97;100.00;93402.63;618751;222;32070;-73
2021/12/10 08:19:17;;;;;;;0.40;0.30;;;-2.80;1.40;;;-1.89;100.00;93384.93;620025;222;31908;-76
2021/12/10 08:21:59;;;;;;;0.40;0.40;;;-2.60;1.40;;;-1.79;100.00;93376.16;646899;216;31571;-73
2021/12/10 08:24:41;;;;;;;0.60;0.30;;;-2.50;1.40;;;-1.66;100.00;93378.30;645120;216;31513;-76
2021/12/10 08:27:22;;;;;;;0.70;0.52;;;-2.40;1.40;;;-1.55;100.00;93377.98;647159;212;31951;-74
2021/12/10 08:30:05;;;;;;;1.00;0.60;;;-2.20;1.40;;;-1.72;100.00;93378.16;646700;212;31655;-73
2021/12/10 08:32:54;;;;;;;0.80;0.50;;;-2.20;1.40;;;-1.55;100.00;93381.27;618868;226;31840;-77
2021/12/10 08:35:53;;;;;;;0.50;0.40;;;-2.10;1.40;;;-1.62;100.00;93370.67;647107;212;31524;-76
2021/12/10 08:38:37;;;;;;;0.93;0.90;;;-2.10;1.40;;;-1.75;100.00;93370.70;645268;216;31513;-77
2021/12/10 08:41:22;;;;;;;0.70;0.70;;;-2.00;1.40;;;-1.65;100.00;93370.91;620210;226;32142;-76
2021/12/10 08:44:04;;;;;;;0.40;0.40;;;-1.90;1.40;;;-1.22;100.00;93371.80;648404;216;31511;-73
2021/12/10 08:46:48;;;;;;;0.40;0.37;;;-0.70;1.40;;;-0.32;100.00;93365.52;646370;216;31547;-77
2021/12/10 08:49:35;;;;;;;0.62;0.62;;;0.20;1.40;;;0.54;100.00;93360.94;646836;216;31638;-74
2021/12/10 08:52:19;;;;;;;1.10;0.80;;;1.00;1.40;;;1.85;100.00;93359.08;646450;216;32933;-73
2021/12/10 08:55:01;;;;;;;1.80;0.75;;;1.90;1.40;;;2.34;100.00;93357.89;646328;216;31601;-77
2021/12/10 08:57:48;;;;;;;1.00;0.80;;;2.80;1.40;;;2.99;100.00;93355.80;647456;212;31615;-75
2021/12/10 09:00:36;;;;;;;1.10;0.70;;;2.60;1.40;;;2.16;100.00;93359.43;646467;216;31471;-77
2021/12/10 09:03:18;;;;;;;0.70;0.50;;;1.30;1.40;;;1.52;100.00;93348.83;647169;216;31478;-78
2021/12/10 09:06:05;;;;;;;1.00;0.80;;;1.00;1.40;;;1.03;100.00;93334.76;643314;216;31930;-74
2021/12/10 09:08:53;;;;;;;0.85;0.55;;;1.10;1.40;;;1.57;100.00;93330.13;616159;227;32178;-77
2021/12/10 09:11:34;;;;;;;1.90;0.70;;;2.10;1.40;;;4.03;100.00;93322.10;646562;216;31457;-78
2021/12/10 09:14:17;;;;;;;1.40;0.60;;;4.00;1.40;;;4.25;100.00;93325.29;647994;212;31475;-78
2021/12/10 09:16:58;;;;;;;1.70;0.70;;;4.30;1.40;;;4.04;100.00;93324.15;647188;216;32643;-78
2021/12/10 09:19:45;;;;;;;2.67;1.00;;;3.50;1.40;;;4.39;100.00;93321.42;646527;216;31457;-76
2021/12/10 09:22:33;;;;;;;0.90;0.70;;;4.60;1.40;;;6.96;92.16;93324.51;646499;216;31930;-78
2021/12/10 09:25:21;;;;;;;1.10;0.60;;;5.40;1.40;;;6.16;83.13;93322.20;646279;212;31548;-75
2021/12/10 09:30:43;;;;;;;1.00;0.50;;;4.10;1.40;;;5.15;91.93;93317.42;647480;216;31568;-77
2021/12/10 09:35:51;;;;;;;1.40;0.90;;;3.20;1.40;;;4.81;90.02;93317.17;647004;212;31863;-77
2021/12/10 09:38:33;;;;;;;1.77;1.00;;;2.80;1.40;;;4.30;93.19;93319.52;647242;212;31570;-78
2021/12/10 09:41:14;;;;;;;1.10;0.70;;;1.70;1.40;;;2.90;98.44;93316.14;619873;226;32452;-78
2021/12/10 09:44:02;;;;;;;0.80;0.50;;;0.80;1.40;;;2.57;100.00;93309.64;646601;216;31545;-77
2021/12/10 09:46:44;;;;;;;1.00;0.80;;;0.80;1.40;;;2.22;100.00;93307.42;646742;216;31540;-75
2021/12/10 09:49:32;;;;;;;0.95;0.50;;;0.60;1.40;;;1.48;100.00;93308.09;646699;212;31594;-77
2021/12/10 09:52:15;;;;;;;1.00;0.70;;;0.40;1.40;;;2.01;100.00;93295.36;647169;216;31636;-79
2021/12/10 09:55:01;;;;;;;1.30;0.80;;;0.60;1.40;;;1.53;100.00;93290.77;618740;226;32046;-75
2021/12/10 09:57:49;;;;;;;0.70;0.60;;;0.50;1.40;;;0.83;100.00;93274.12;646570;216;32616;-77
2021/12/10 10:00:40;;;;;;;0.60;0.50;;;0.20;1.40;;;0.71;100.00;93268.31;646936;216;31594;-78
2021/12/10 10:03:22;;;;;;;0.60;0.60;;;0.10;1.40;;;0.69;100.00;93255.55;647221;212;32225;-77
2021/12/10 10:06:03;;;;;;;1.30;1.20;;;0.20;1.40;;;0.88;100.00;93242.61;637440;216;31746;-78
2021/12/10 10:08:51;;;;;;;0.60;0.60;;;0.20;1.40;;;0.58;100.00;93225.80;647479;216;31600;-77
2021/12/10 10:11:33;;;;;;;1.70;0.60;;;0.00;1.40;;;0.45;100.00;93216.34;646478;212;31524;-74
2021/12/10 10:14:16;;;;;;;1.60;0.80;;;0.10;1.40;;;0.59;100.00;93212.72;645940;216;31657;-77
2021/12/10 10:16:58;;;;;;;0.45;0.45;;;0.20;1.40;;;0.87;100.00;93203.21;647145;216;31486;-78
2021/12/10 10:19:46;;;;;;;0.70;0.52;;;0.30;1.40;;;0.96;100.00;93193.17;647087;212;31531;-76
2021/12/10 10:22:34;;;;;;;1.02;0.68;;;0.50;1.40;;;1.03;100.00;93183.62;647423;216;31519;-77
2021/12/10 10:25:21;;;;;;;0.98;0.90;;;0.50;1.40;;;1.00;100.00;93181.17;619379;222;32122;-75
2021/12/10 10:28:11;;;;;;;1.40;0.90;;;0.50;1.40;;;1.36;100.00;93184.36;619348;226;31851;-77
2021/12/10 10:30:57;;;;;;;1.10;0.60;;;0.80;1.40;;;2.37;100.00;93195.07;645759;216;31565;-78
2021/12/10 10:35:53;;;;;;;2.30;0.80;;;1.20;1.40;;;1.75;100.00;93199.92;646577;212;42394;-75
2021/12/10 10:38:41;;;;;;;0.60;0.60;;;0.80;1.40;;;1.70;100.00;93197.15;620355;226;31872;-77
2021/12/10 10:41:31;;;;;;;2.15;1.12;;;0.90;1.40;;;1.88;100.00;93206.17;647461;212;31530;-75
2021/12/10 10:44:17;;;;;;;1.05;0.90;;;0.90;1.40;;;2.36;100.00;93191.67;640497;217;31721;-77
2021/12/10 10:46:58;;;;;;;1.60;0.70;;;1.10;1.40;;;2.15;100.00;93194.98;647246;216;31546;-77
2021/12/10 10:49:40;;;;;;;0.80;0.80;;;1.10;1.40;;;2.35;100.00;93194.42;646615;212;31518;-77
2021/12/10 10:52:30;;;;;;;2.70;0.60;;;1.30;1.40;;;2.84;100.00;93190.08;646078;216;32208;-76
2021/12/10 10:55:33;;;;;;;1.10;0.70;;;1.50;1.40;;;2.55;100.00;93193.10;646246;216;42344;-77
2021/12/10 10:58:17;;;;;;;1.70;0.82;;;1.50;1.40;;;3.23;100.00;93186.34;646753;212;31569;-75
2021/12/10 11:01:08;;;;;;;1.10;0.60;;;1.80;1.40;;;3.63;100.00;93186.96;646744;216;31674;-77
2021/12/10 11:03:58;;;;;;;1.10;1.00;;;2.20;1.40;;;3.82;100.00;93178.09;646275;216;31512;-77
2021/12/10 11:06:38;;;;;;;0.93;0.45;;;2.10;1.40;;;3.69;100.00;93175.09;646689;212;31496;-77
2021/12/10 11:09:22;;;;;;;1.30;0.40;;;2.10;1.40;;;3.53;100.00;93166.43;647825;216;31511;-78
2021/12/10 11:12:05;;;;;;;0.50;0.40;;;2.20;1.40;;;3.35;100.00;93165.98;646695;216;31563;-77
2021/12/10 11:14:49;;;;;;;0.70;0.60;;;2.10;1.40;;;3.51;100.00;93157.64;647193;216;31462;-77
2021/12/10 11:17:34;;;;;;;1.20;0.50;;;2.00;1.40;;;3.42;100.00;93162.75;619073;222;42801;-77
2021/12/10 11:20:17;;;;;;;1.10;1.00;;;1.90;1.40;;;3.57;100.00;93159.13;646665;216;42556;-77
2021/12/10 11:23:02;;;;;;;0.60;0.50;;;1.80;1.40;;;3.23;100.00;93160.20;619433;226;31849;-77
2021/12/10 11:25:44;;;;;;;0.80;0.50;;;1.70;1.40;;;3.15;100.00;93149.95;647653;216;32025;-78
2021/12/10 11:28:26;;;;;;;0.80;0.40;;;1.70;1.40;;;2.96;100.00;93147.38;646284;216;41023;-77
2021/12/10 11:31:07;;;;;;;0.80;0.60;;;1.70;1.40;;;2.78;100.00;93141.25;646621;212;32656;-77
2021/12/10 11:35:52;;;;;;;0.90;0.60;;;1.60;1.40;;;3.03;100.00;93136.05;648160;216;32055;-75
2021/12/10 11:38:33;;;;;;;0.50;0.40;;;1.70;1.40;;;3.28;100.00;93125.77;646588;216;42773;-76
2021/12/10 11:41:15;;;;;;;0.88;0.50;;;1.80;1.40;;;3.07;100.00;93131.63;646881;216;31507;-77
2021/12/10 11:47:01;;;;;;;0.68;0.57;;;2.00;1.40;;;3.90;100.00;93132.17;647439;216;31525;-76
2021/12/10 11:49:35;;;;;;;0.60;0.40;;;2.10;1.40;;;3.92;100.00;93137.44;648133;212;31531;-75
2021/12/10 11:53:45;;;;;;;0.70;0.50;;;1.80;1.40;;;3.71;100.00;93134.67;646746;212;31548;-77
2021/12/10 11:59:23;;;;;;;0.60;0.50;;;1.80;1.40;;;3.67;100.00;93139.67;647470;216;31762;-77
2021/12/10 12:02:06;;;;;;;0.80;0.50;;;1.80;1.40;;;3.92;100.00;93144.70;647799;212;31628;-76
2021/12/10 12:04:47;;;;;;;0.70;0.70;;;1.90;1.40;;;3.76;100.00;93147.11;642667;212;31644;-76
2021/12/10 12:07:40;;;;;;;0.40;0.40;;;1.90;1.40;;;3.94;100.00;93143.66;646938;212;31501;-76
2021/12/10 12:11:09;;;;;;;0.50;0.30;;;2.00;1.40;;;3.79;100.00;93154.43;647651;216;31489;-76
2021/12/10 12:13:57;;;;;;;0.40;0.20;;;2.00;1.40;;;3.59;100.00;93160.47;620484;222;31818;-76